sensor_id;sensor_type;location;lat;lon;timestamp;P1;durP1;ratioP1;P2;durP2;ratioP2
4698;SDS011;33708;49.466;11.176;2023-07-24T00:00:13;8.50;;;6.30;;
4698;SDS011;33708;49.466;11.176;2023-07-24T00:02:39;11.77;;;6.87;;
4698;SDS011;33708;49.466;11.176;2023-07-24T00:05:05;12.90;;;7.23;;
4698;SDS011;33708;49.466;11.176;2023-07-24T00:07:31;8.63;;;5.70;;
4698;SDS011;33708;49.466;11.176;2023-07-24T00:09:56;10.97;;;6.47;;
4698;SDS011;33708;49.466;11.176;2023-07-24T00:12:22;15.30;;;7.50;;
4698;SDS011;33708;49.466;11.176;2023-07-24T00:14:48;13.30;;;7.50;;
4698;SDS011;33708;49.466;11.176;2023-07-24T00:17:13;13.23;;;7.03;;
4698;SDS011;33708;49.466;11.176;2023-07-24T00:19:39;12.03;;;7.10;;
4698;SDS011;33708;49.466;11.176;2023-07-24T00:22:05;10.77;;;7.10;;
4698;SDS011;33708;49.466;11.176;2023-07-24T00:24:31;20.43;;;7.90;;
4698;SDS011;33708;49.466;11.176;2023-07-24T00:26:57;13.27;;;7.80;;
4698;SDS011;33708;49.466;11.176;2023-07-24T00:29:22;12.00;;;7.37;;
4698;SDS011;33708;49.466;11.176;2023-07-24T00:31:48;11.33;;;6.60;;
4698;SDS011;33708;49.466;11.176;2023-07-24T00:34:14;13.13;;;8.10;;
4698;SDS011;33708;49.466;11.176;2023-07-24T00:36:39;15.47;;;7.10;;
4698;SDS011;33708;49.466;11.176;2023-07-24T00:39:05;21.77;;;7.90;;
4698;SDS011;33708;49.466;11.176;2023-07-24T00:41:31;18.83;;;7.10;;
4698;SDS011;33708;49.466;11.176;2023-07-24T00:43:56;13.07;;;7.70;;
4698;SDS011;33708;49.466;11.176;2023-07-24T00:46:22;10.77;;;7.50;;
4698;SDS011;33708;49.466;11.176;2023-07-24T00:48:49;14.37;;;7.20;;
4698;SDS011;33708;49.466;11.176;2023-07-24T00:51:15;10.83;;;7.37;;
4698;SDS011;33708;49.466;11.176;2023-07-24T00:53:41;17.07;;;7.20;;
4698;SDS011;33708;49.466;11.176;2023-07-24T00:56:07;12.73;;;7.67;;
4698;SDS011;33708;49.466;11.176;2023-07-24T00:58:34;11.57;;;7.67;;
4698;SDS011;33708;49.466;11.176;2023-07-24T01:01:01;19.63;;;8.00;;
4698;SDS011;33708;49.466;11.176;2023-07-24T01:03:31;17.53;;;7.90;;
4698;SDS011;33708;49.466;11.176;2023-07-24T01:05:59;11.83;;;7.83;;
4698;SDS011;33708;49.466;11.176;2023-07-24T01:08:27;11.90;;;7.50;;
4698;SDS011;33708;49.466;11.176;2023-07-24T01:10:52;15.30;;;8.40;;
4698;SDS011;33708;49.466;11.176;2023-07-24T01:13:20;12.83;;;7.90;;
4698;SDS011;33708;49.466;11.176;2023-07-24T01:15:58;16.40;;;8.80;;
4698;SDS011;33708;49.466;11.176;2023-07-24T01:18:28;12.53;;;8.20;;
4698;SDS011;33708;49.466;11.176;2023-07-24T01:20:56;14.40;;;8.50;;
4698;SDS011;33708;49.466;11.176;2023-07-24T01:26:17;16.10;;;9.87;;
4698;SDS011;33708;49.466;11.176;2023-07-24T01:28:44;11.97;;;8.40;;
4698;SDS011;33708;49.466;11.176;2023-07-24T01:31:11;11.57;;;7.90;;
4698;SDS011;33708;49.466;11.176;2023-07-24T01:33:36;21.07;;;8.30;;
4698;SDS011;33708;49.466;11.176;2023-07-24T01:36:03;15.73;;;8.97;;
4698;SDS011;33708;49.466;11.176;2023-07-24T01:38:31;15.97;;;9.13;;
4698;SDS011;33708;49.466;11.176;2023-07-24T01:40:58;14.27;;;9.33;;
4698;SDS011;33708;49.466;11.176;2023-07-24T01:43:24;12.70;;;8.60;;
4698;SDS011;33708;49.466;11.176;2023-07-24T01:45:53;16.07;;;9.67;;
4698;SDS011;33708;49.466;11.176;2023-07-24T01:48:19;19.07;;;10.07;;
4698;SDS011;33708;49.466;11.176;2023-07-24T01:50:44;14.37;;;9.47;;
4698;SDS011;33708;49.466;11.176;2023-07-24T01:53:10;16.87;;;9.80;;
4698;SDS011;33708;49.466;11.176;2023-07-24T01:55:36;18.00;;;10.23;;
4698;SDS011;33708;49.466;11.176;2023-07-24T01:58:01;15.63;;;10.00;;
4698;SDS011;33708;49.466;11.176;2023-07-24T02:00:27;17.70;;;9.50;;
4698;SDS011;33708;49.466;11.176;2023-07-24T02:02:52;14.93;;;10.30;;
4698;SDS011;33708;49.466;11.176;2023-07-24T02:05:18;16.43;;;9.80;;
4698;SDS011;33708;49.466;11.176;2023-07-24T02:07:43;14.07;;;9.33;;
4698;SDS011;33708;49.466;11.176;2023-07-24T02:10:09;16.73;;;10.07;;
4698;SDS011;33708;49.466;11.176;2023-07-24T02:12:35;14.67;;;9.43;;
4698;SDS011;33708;49.466;11.176;2023-07-24T02:15:01;16.53;;;9.90;;
4698;SDS011;33708;49.466;11.176;2023-07-24T02:17:26;15.80;;;10.57;;
4698;SDS011;33708;49.466;11.176;2023-07-24T02:19:52;18.10;;;9.60;;
4698;SDS011;33708;49.466;11.176;2023-07-24T02:22:18;13.43;;;9.40;;
4698;SDS011;33708;49.466;11.176;2023-07-24T02:24:43;16.40;;;9.50;;
4698;SDS011;33708;49.466;11.176;2023-07-24T02:27:12;17.40;;;10.33;;
4698;SDS011;33708;49.466;11.176;2023-07-24T02:29:39;14.60;;;10.10;;
4698;SDS011;33708;49.466;11.176;2023-07-24T02:32:05;16.90;;;9.40;;
4698;SDS011;33708;49.466;11.176;2023-07-24T02:34:30;14.63;;;9.67;;
4698;SDS011;33708;49.466;11.176;2023-07-24T02:36:56;14.63;;;9.60;;
4698;SDS011;33708;49.466;11.176;2023-07-24T02:39:21;15.17;;;9.40;;
4698;SDS011;33708;49.466;11.176;2023-07-24T02:41:47;16.43;;;10.27;;
4698;SDS011;33708;49.466;11.176;2023-07-24T02:44:14;17.50;;;10.37;;
4698;SDS011;33708;49.466;11.176;2023-07-24T02:46:39;13.80;;;9.20;;
4698;SDS011;33708;49.466;11.176;2023-07-24T02:49:05;19.00;;;10.70;;
4698;SDS011;33708;49.466;11.176;2023-07-24T02:51:31;14.70;;;8.93;;
4698;SDS011;33708;49.466;11.176;2023-07-24T02:53:56;16.40;;;10.70;;
4698;SDS011;33708;49.466;11.176;2023-07-24T02:56:22;22.17;;;10.53;;
4698;SDS011;33708;49.466;11.176;2023-07-24T02:58:48;13.73;;;9.43;;
4698;SDS011;33708;49.466;11.176;2023-07-24T03:01:13;17.30;;;11.03;;
4698;SDS011;33708;49.466;11.176;2023-07-24T03:03:39;15.50;;;9.50;;
4698;SDS011;33708;49.466;11.176;2023-07-24T03:06:06;19.60;;;11.10;;
4698;SDS011;33708;49.466;11.176;2023-07-24T03:08:31;17.67;;;9.10;;
4698;SDS011;33708;49.466;11.176;2023-07-24T03:10:57;13.37;;;9.87;;
4698;SDS011;33708;49.466;11.176;2023-07-24T03:13:23;14.77;;;9.63;;
4698;SDS011;33708;49.466;11.176;2023-07-24T03:15:55;18.53;;;10.87;;
4698;SDS011;33708;49.466;11.176;2023-07-24T03:18:22;16.20;;;10.30;;
4698;SDS011;33708;49.466;11.176;2023-07-24T03:20:48;16.63;;;9.87;;
4698;SDS011;33708;49.466;11.176;2023-07-24T03:23:13;15.73;;;9.60;;
4698;SDS011;33708;49.466;11.176;2023-07-24T03:25:39;16.83;;;9.33;;
4698;SDS011;33708;49.466;11.176;2023-07-24T03:28:05;15.30;;;9.40;;
4698;SDS011;33708;49.466;11.176;2023-07-24T03:30:30;13.87;;;9.93;;
4698;SDS011;33708;49.466;11.176;2023-07-24T03:32:57;14.40;;;10.43;;
4698;SDS011;33708;49.466;11.176;2023-07-24T03:35:22;14.77;;;9.00;;
4698;SDS011;33708;49.466;11.176;2023-07-24T03:37:48;15.63;;;10.30;;
4698;SDS011;33708;49.466;11.176;2023-07-24T03:40:14;15.67;;;10.00;;
4698;SDS011;33708;49.466;11.176;2023-07-24T03:42:40;14.20;;;9.60;;
4698;SDS011;33708;49.466;11.176;2023-07-24T03:45:06;17.50;;;10.23;;
4698;SDS011;33708;49.466;11.176;2023-07-24T03:47:33;13.73;;;9.60;;
4698;SDS011;33708;49.466;11.176;2023-07-24T03:49:59;15.53;;;10.23;;
4698;SDS011;33708;49.466;11.176;2023-07-24T03:52:24;20.80;;;11.20;;
4698;SDS011;33708;49.466;11.176;2023-07-24T03:54:51;17.40;;;11.10;;
4698;SDS011;33708;49.466;11.176;2023-07-24T03:57:16;19.60;;;11.30;;
4698;SDS011;33708;49.466;11.176;2023-07-24T03:59:42;16.50;;;11.07;;
4698;SDS011;33708;49.466;11.176;2023-07-24T04:02:08;17.63;;;10.80;;
4698;SDS011;33708;49.466;11.176;2023-07-24T04:04:35;17.13;;;11.00;;
4698;SDS011;33708;49.466;11.176;2023-07-24T04:07:00;16.40;;;10.30;;
4698;SDS011;33708;49.466;11.176;2023-07-24T04:09:26;17.17;;;10.50;;
4698;SDS011;33708;49.466;11.176;2023-07-24T04:11:52;18.90;;;11.57;;
4698;SDS011;33708;49.466;11.176;2023-07-24T04:14:17;15.90;;;11.03;;
4698;SDS011;33708;49.466;11.176;2023-07-24T04:16:43;15.63;;;9.67;;
4698;SDS011;33708;49.466;11.176;2023-07-24T04:19:09;22.33;;;10.87;;
4698;SDS011;33708;49.466;11.176;2023-07-24T04:21:35;14.43;;;9.80;;
4698;SDS011;33708;49.466;11.176;2023-07-24T04:24:01;17.30;;;10.87;;
4698;SDS011;33708;49.466;11.176;2023-07-24T04:26:26;18.20;;;11.13;;
4698;SDS011;33708;49.466;11.176;2023-07-24T04:28:52;18.63;;;10.30;;
4698;SDS011;33708;49.466;11.176;2023-07-24T04:31:17;16.40;;;10.07;;
4698;SDS011;33708;49.466;11.176;2023-07-24T04:33:43;18.20;;;10.97;;
4698;SDS011;33708;49.466;11.176;2023-07-24T04:36:08;20.03;;;11.50;;
4698;SDS011;33708;49.466;11.176;2023-07-24T04:38:34;14.07;;;10.43;;
4698;SDS011;33708;49.466;11.176;2023-07-24T04:41:00;17.17;;;10.73;;
4698;SDS011;33708;49.466;11.176;2023-07-24T04:43:27;18.70;;;11.47;;
4698;SDS011;33708;49.466;11.176;2023-07-24T04:45:53;15.57;;;10.80;;
4698;SDS011;33708;49.466;11.176;2023-07-24T04:48:19;16.07;;;10.60;;
4698;SDS011;33708;49.466;11.176;2023-07-24T04:50:44;15.50;;;10.37;;
4698;SDS011;33708;49.466;11.176;2023-07-24T04:53:10;15.00;;;10.03;;
4698;SDS011;33708;49.466;11.176;2023-07-24T04:55:35;20.87;;;10.90;;
4698;SDS011;33708;49.466;11.176;2023-07-24T04:58:01;14.10;;;9.23;;
4698;SDS011;33708;49.466;11.176;2023-07-24T05:00:27;15.80;;;9.60;;
4698;SDS011;33708;49.466;11.176;2023-07-24T05:02:52;13.50;;;9.60;;
4698;SDS011;33708;49.466;11.176;2023-07-24T05:05:18;19.73;;;9.00;;
4698;SDS011;33708;49.466;11.176;2023-07-24T05:07:43;15.93;;;10.20;;
4698;SDS011;33708;49.466;11.176;2023-07-24T05:10:09;15.13;;;10.03;;
4698;SDS011;33708;49.466;11.176;2023-07-24T05:12:35;12.50;;;9.00;;
4698;SDS011;33708;49.466;11.176;2023-07-24T05:15:00;13.80;;;9.70;;
4698;SDS011;33708;49.466;11.176;2023-07-24T05:17:26;17.40;;;8.97;;
4698;SDS011;33708;49.466;11.176;2023-07-24T05:19:51;13.40;;;9.33;;
4698;SDS011;33708;49.466;11.176;2023-07-24T05:22:17;14.63;;;10.67;;
4698;SDS011;33708;49.466;11.176;2023-07-24T05:24:42;13.43;;;10.50;;
4698;SDS011;33708;49.466;11.176;2023-07-24T05:27:08;19.43;;;10.47;;
4698;SDS011;33708;49.466;11.176;2023-07-24T05:29:34;17.23;;;10.70;;
4698;SDS011;33708;49.466;11.176;2023-07-24T05:31:59;16.00;;;11.90;;
4698;SDS011;33708;49.466;11.176;2023-07-24T05:34:25;14.50;;;10.60;;
4698;SDS011;33708;49.466;11.176;2023-07-24T05:36:51;15.73;;;10.40;;
4698;SDS011;33708;49.466;11.176;2023-07-24T05:39:16;14.70;;;10.03;;
4698;SDS011;33708;49.466;11.176;2023-07-24T05:41:42;26.10;;;11.30;;
4698;SDS011;33708;49.466;11.176;2023-07-24T05:44:08;14.57;;;9.10;;
4698;SDS011;33708;49.466;11.176;2023-07-24T05:46:33;15.00;;;8.40;;
4698;SDS011;33708;49.466;11.176;2023-07-24T05:48:59;14.67;;;9.90;;
4698;SDS011;33708;49.466;11.176;2023-07-24T05:51:26;15.13;;;9.30;;
4698;SDS011;33708;49.466;11.176;2023-07-24T05:53:52;14.00;;;8.80;;
4698;SDS011;33708;49.466;11.176;2023-07-24T05:56:18;10.37;;;7.70;;
4698;SDS011;33708;49.466;11.176;2023-07-24T05:58:43;9.83;;;7.93;;
4698;SDS011;33708;49.466;11.176;2023-07-24T06:01:09;12.33;;;9.13;;
4698;SDS011;33708;49.466;11.176;2023-07-24T06:03:35;12.87;;;9.10;;
4698;SDS011;33708;49.466;11.176;2023-07-24T06:06:01;11.30;;;8.70;;
4698;SDS011;33708;49.466;11.176;2023-07-24T06:08:26;12.00;;;8.53;;
4698;SDS011;33708;49.466;11.176;2023-07-24T06:10:52;13.47;;;9.13;;
4698;SDS011;33708;49.466;11.176;2023-07-24T06:13:18;12.67;;;9.50;;
4698;SDS011;33708;49.466;11.176;2023-07-24T06:15:44;16.90;;;10.30;;
4698;SDS011;33708;49.466;11.176;2023-07-24T06:18:11;13.60;;;9.13;;
4698;SDS011;33708;49.466;11.176;2023-07-24T06:20:37;13.50;;;9.73;;
4698;SDS011;33708;49.466;11.176;2023-07-24T06:23:02;14.47;;;9.70;;
4698;SDS011;33708;49.466;11.176;2023-07-24T06:25:29;14.83;;;9.40;;
4698;SDS011;33708;49.466;11.176;2023-07-24T06:27:55;11.47;;;8.57;;
4698;SDS011;33708;49.466;11.176;2023-07-24T06:30:21;15.60;;;9.90;;
4698;SDS011;33708;49.466;11.176;2023-07-24T06:32:47;13.27;;;9.90;;
4698;SDS011;33708;49.466;11.176;2023-07-24T06:35:12;14.60;;;10.10;;
4698;SDS011;33708;49.466;11.176;2023-07-24T06:37:38;18.20;;;10.90;;
4698;SDS011;33708;49.466;11.176;2023-07-24T06:40:04;14.87;;;10.63;;
4698;SDS011;33708;49.466;11.176;2023-07-24T06:42:31;12.77;;;9.40;;
4698;SDS011;33708;49.466;11.176;2023-07-24T06:44:57;15.90;;;10.23;;
4698;SDS011;33708;49.466;11.176;2023-07-24T06:47:22;15.67;;;10.60;;
4698;SDS011;33708;49.466;11.176;2023-07-24T06:49:48;14.17;;;9.33;;
4698;SDS011;33708;49.466;11.176;2023-07-24T06:52:13;15.00;;;10.07;;
4698;SDS011;33708;49.466;11.176;2023-07-24T06:54:39;14.47;;;10.43;;
4698;SDS011;33708;49.466;11.176;2023-07-24T06:57:04;14.63;;;10.20;;
4698;SDS011;33708;49.466;11.176;2023-07-24T06:59:30;15.97;;;10.20;;
4698;SDS011;33708;49.466;11.176;2023-07-24T07:01:55;16.77;;;10.77;;
4698;SDS011;33708;49.466;11.176;2023-07-24T07:04:21;15.00;;;10.53;;
4698;SDS011;33708;49.466;11.176;2023-07-24T07:06:47;14.57;;;10.07;;
4698;SDS011;33708;49.466;11.176;2023-07-24T07:09:12;12.97;;;9.53;;
4698;SDS011;33708;49.466;11.176;2023-07-24T07:11:38;13.93;;;9.50;;
4698;SDS011;33708;49.466;11.176;2023-07-24T07:14:04;16.17;;;10.50;;
4698;SDS011;33708;49.466;11.176;2023-07-24T07:16:29;10.23;;;9.10;;
4698;SDS011;33708;49.466;11.176;2023-07-24T07:18:55;15.40;;;10.57;;
4698;SDS011;33708;49.466;11.176;2023-07-24T07:21:20;12.33;;;9.40;;
4698;SDS011;33708;49.466;11.176;2023-07-24T07:23:46;15.80;;;9.73;;
4698;SDS011;33708;49.466;11.176;2023-07-24T07:26:12;12.50;;;9.57;;
4698;SDS011;33708;49.466;11.176;2023-07-24T07:28:38;13.30;;;9.40;;
4698;SDS011;33708;49.466;11.176;2023-07-24T07:31:03;12.27;;;9.63;;
4698;SDS011;33708;49.466;11.176;2023-07-24T07:33:29;12.10;;;9.67;;
4698;SDS011;33708;49.466;11.176;2023-07-24T07:35:54;10.73;;;8.80;;
4698;SDS011;33708;49.466;11.176;2023-07-24T07:38:20;14.57;;;9.43;;
4698;SDS011;33708;49.466;11.176;2023-07-24T07:40:47;15.07;;;8.70;;
4698;SDS011;33708;49.466;11.176;2023-07-24T07:43:13;21.43;;;10.23;;
4698;SDS011;33708;49.466;11.176;2023-07-24T07:45:39;13.13;;;9.77;;
4698;SDS011;33708;49.466;11.176;2023-07-24T07:48:05;12.83;;;9.27;;
4698;SDS011;33708;49.466;11.176;2023-07-24T07:50:30;11.67;;;8.93;;
4698;SDS011;33708;49.466;11.176;2023-07-24T07:52:57;13.03;;;9.23;;
4698;SDS011;33708;49.466;11.176;2023-07-24T07:55:22;10.67;;;8.97;;
4698;SDS011;33708;49.466;11.176;2023-07-24T07:57:48;19.17;;;9.37;;
4698;SDS011;33708;49.466;11.176;2023-07-24T08:00:14;13.43;;;10.20;;
4698;SDS011;33708;49.466;11.176;2023-07-24T08:02:40;13.87;;;8.73;;
4698;SDS011;33708;49.466;11.176;2023-07-24T08:05:09;14.20;;;9.33;;
4698;SDS011;33708;49.466;11.176;2023-07-24T08:07:36;13.00;;;9.37;;
4698;SDS011;33708;49.466;11.176;2023-07-24T08:10:02;16.73;;;9.60;;
4698;SDS011;33708;49.466;11.176;2023-07-24T08:12:28;13.80;;;9.30;;
4698;SDS011;33708;49.466;11.176;2023-07-24T08:14:54;15.00;;;9.00;;
4698;SDS011;33708;49.466;11.176;2023-07-24T08:17:21;19.70;;;10.17;;
4698;SDS011;33708;49.466;11.176;2023-07-24T08:19:46;15.23;;;9.43;;
4698;SDS011;33708;49.466;11.176;2023-07-24T08:22:12;13.70;;;9.23;;
4698;SDS011;33708;49.466;11.176;2023-07-24T08:24:37;12.10;;;9.47;;
4698;SDS011;33708;49.466;11.176;2023-07-24T08:27:03;11.43;;;8.60;;
4698;SDS011;33708;49.466;11.176;2023-07-24T08:29:29;14.43;;;9.30;;
4698;SDS011;33708;49.466;11.176;2023-07-24T08:31:55;12.60;;;9.27;;
4698;SDS011;33708;49.466;11.176;2023-07-24T08:34:20;17.07;;;9.40;;
4698;SDS011;33708;49.466;11.176;2023-07-24T08:36:46;13.57;;;9.80;;
4698;SDS011;33708;49.466;11.176;2023-07-24T08:39:11;18.63;;;10.27;;
4698;SDS011;33708;49.466;11.176;2023-07-24T08:41:37;16.63;;;10.17;;
4698;SDS011;33708;49.466;11.176;2023-07-24T08:44:07;19.97;;;10.10;;
4698;SDS011;33708;49.466;11.176;2023-07-24T08:46:37;16.03;;;9.20;;
4698;SDS011;33708;49.466;11.176;2023-07-24T08:49:05;14.17;;;9.50;;
4698;SDS011;33708;49.466;11.176;2023-07-24T08:51:43;14.20;;;9.20;;
4698;SDS011;33708;49.466;11.176;2023-07-24T08:54:10;15.30;;;10.63;;
4698;SDS011;33708;49.466;11.176;2023-07-24T08:56:36;14.27;;;11.10;;
4698;SDS011;33708;49.466;11.176;2023-07-24T08:59:04;15.17;;;10.40;;
4698;SDS011;33708;49.466;11.176;2023-07-24T09:01:30;17.47;;;10.23;;
4698;SDS011;33708;49.466;11.176;2023-07-24T09:03:56;18.97;;;9.93;;
4698;SDS011;33708;49.466;11.176;2023-07-24T09:06:21;16.70;;;11.43;;
4698;SDS011;33708;49.466;11.176;2023-07-24T09:08:47;12.17;;;10.13;;
4698;SDS011;33708;49.466;11.176;2023-07-24T09:11:13;16.63;;;10.70;;
4698;SDS011;33708;49.466;11.176;2023-07-24T09:13:41;17.23;;;9.93;;
4698;SDS011;33708;49.466;11.176;2023-07-24T09:16:07;20.83;;;12.10;;
4698;SDS011;33708;49.466;11.176;2023-07-24T09:18:40;15.33;;;10.27;;
4698;SDS011;33708;49.466;11.176;2023-07-24T09:21:06;19.23;;;10.33;;
4698;SDS011;33708;49.466;11.176;2023-07-24T09:23:32;14.10;;;9.80;;
4698;SDS011;33708;49.466;11.176;2023-07-24T09:25:57;16.73;;;11.67;;
4698;SDS011;33708;49.466;11.176;2023-07-24T09:28:23;16.30;;;10.50;;
4698;SDS011;33708;49.466;11.176;2023-07-24T09:30:53;17.73;;;11.87;;
4698;SDS011;33708;49.466;11.176;2023-07-24T09:33:33;15.67;;;11.17;;
4698;SDS011;33708;49.466;11.176;2023-07-24T09:36:00;13.50;;;10.57;;
4698;SDS011;33708;49.466;11.176;2023-07-24T09:38:27;15.73;;;11.03;;
4698;SDS011;33708;49.466;11.176;2023-07-24T09:40:53;13.00;;;10.53;;
4698;SDS011;33708;49.466;11.176;2023-07-24T09:43:24;15.57;;;10.47;;
4698;SDS011;33708;49.466;11.176;2023-07-24T09:45:52;16.53;;;11.30;;
4698;SDS011;33708;49.466;11.176;2023-07-24T09:48:20;13.10;;;9.73;;
4698;SDS011;33708;49.466;11.176;2023-07-24T09:50:53;20.00;;;10.83;;
4698;SDS011;33708;49.466;11.176;2023-07-24T09:53:33;18.73;;;10.80;;
4698;SDS011;33708;49.466;11.176;2023-07-24T09:56:19;18.50;;;10.33;;
4698;SDS011;33708;49.466;11.176;2023-07-24T09:58:46;16.00;;;10.47;;
4698;SDS011;33708;49.466;11.176;2023-07-24T10:01:14;15.40;;;11.17;;
4698;SDS011;33708;49.466;11.176;2023-07-24T10:03:48;19.70;;;10.40;;
4698;SDS011;33708;49.466;11.176;2023-07-24T10:06:15;15.60;;;11.10;;
4698;SDS011;33708;49.466;11.176;2023-07-24T10:08:42;16.10;;;11.97;;
4698;SDS011;33708;49.466;11.176;2023-07-24T10:11:11;20.67;;;11.17;;
4698;SDS011;33708;49.466;11.176;2023-07-24T10:13:37;15.50;;;10.10;;
4698;SDS011;33708;49.466;11.176;2023-07-24T10:16:04;15.80;;;9.87;;
4698;SDS011;33708;49.466;11.176;2023-07-24T10:18:32;13.83;;;10.03;;
4698;SDS011;33708;49.466;11.176;2023-07-24T10:21:06;15.33;;;10.80;;
4698;SDS011;33708;49.466;11.176;2023-07-24T10:23:33;16.23;;;10.43;;
4698;SDS011;33708;49.466;11.176;2023-07-24T10:26:03;16.77;;;10.73;;
4698;SDS011;33708;49.466;11.176;2023-07-24T10:28:30;14.00;;;10.07;;
4698;SDS011;33708;49.466;11.176;2023-07-24T10:30:57;26.03;;;10.27;;
4698;SDS011;33708;49.466;11.176;2023-07-24T10:33:23;19.43;;;10.87;;
4698;SDS011;33708;49.466;11.176;2023-07-24T10:35:54;13.33;;;9.40;;
4698;SDS011;33708;49.466;11.176;2023-07-24T10:38:33;16.73;;;10.67;;
4698;SDS011;33708;49.466;11.176;2023-07-24T10:41:01;16.17;;;10.20;;
4698;SDS011;33708;49.466;11.176;2023-07-24T10:43:28;13.83;;;9.87;;
4698;SDS011;33708;49.466;11.176;2023-07-24T10:45:54;12.70;;;9.30;;
4698;SDS011;33708;49.466;11.176;2023-07-24T10:48:24;18.07;;;10.43;;
4698;SDS011;33708;49.466;11.176;2023-07-24T10:50:51;19.90;;;10.80;;
4698;SDS011;33708;49.466;11.176;2023-07-24T10:53:18;14.67;;;10.53;;
4698;SDS011;33708;49.466;11.176;2023-07-24T10:55:45;14.50;;;10.60;;
4698;SDS011;33708;49.466;11.176;2023-07-24T10:58:12;14.07;;;9.90;;
4698;SDS011;33708;49.466;11.176;2023-07-24T11:00:42;14.97;;;11.10;;
4698;SDS011;33708;49.466;11.176;2023-07-24T11:03:12;18.67;;;10.57;;
4698;SDS011;33708;49.466;11.176;2023-07-24T11:05:42;14.80;;;10.10;;
4698;SDS011;33708;49.466;11.176;2023-07-24T11:08:18;14.73;;;10.50;;
4698;SDS011;33708;49.466;11.176;2023-07-24T11:10:48;15.57;;;10.80;;
4698;SDS011;33708;49.466;11.176;2023-07-24T11:13:19;14.40;;;10.00;;
4698;SDS011;33708;49.466;11.176;2023-07-24T11:15:49;13.77;;;11.03;;
4698;SDS011;33708;49.466;11.176;2023-07-24T11:18:15;18.70;;;11.40;;
4698;SDS011;33708;49.466;11.176;2023-07-24T11:20:45;17.93;;;10.67;;
4698;SDS011;33708;49.466;11.176;2023-07-24T11:23:16;17.87;;;10.93;;
4698;SDS011;33708;49.466;11.176;2023-07-24T11:25:42;13.53;;;10.17;;
4698;SDS011;33708;49.466;11.176;2023-07-24T11:28:09;19.93;;;11.50;;
4698;SDS011;33708;49.466;11.176;2023-07-24T11:30:36;19.90;;;10.73;;
4698;SDS011;33708;49.466;11.176;2023-07-24T11:33:03;15.53;;;10.67;;
4698;SDS011;33708;49.466;11.176;2023-07-24T11:35:31;14.70;;;10.33;;
4698;SDS011;33708;49.466;11.176;2023-07-24T11:37:57;16.20;;;11.00;;
4698;SDS011;33708;49.466;11.176;2023-07-24T11:43:02;17.80;;;10.70;;
4698;SDS011;33708;49.466;11.176;2023-07-24T11:45:29;19.33;;;11.10;;
4698;SDS011;33708;49.466;11.176;2023-07-24T11:47:55;22.93;;;11.90;;
4698;SDS011;33708;49.466;11.176;2023-07-24T11:50:21;18.70;;;11.97;;
4698;SDS011;33708;49.466;11.176;2023-07-24T11:52:48;15.50;;;10.00;;
4698;SDS011;33708;49.466;11.176;2023-07-24T11:55:17;44.80;;;11.70;;
4698;SDS011;33708;49.466;11.176;2023-07-24T11:57:54;16.33;;;11.50;;
4698;SDS011;33708;49.466;11.176;2023-07-24T12:00:23;19.10;;;11.40;;
4698;SDS011;33708;49.466;11.176;2023-07-24T12:02:50;25.53;;;11.20;;
4698;SDS011;33708;49.466;11.176;2023-07-24T12:05:16;61.63;;;13.60;;
4698;SDS011;33708;49.466;11.176;2023-07-24T12:07:42;65.50;;;13.50;;
4698;SDS011;33708;49.466;11.176;2023-07-24T12:10:12;16.33;;;9.60;;
4698;SDS011;33708;49.466;11.176;2023-07-24T12:12:45;21.30;;;9.90;;
4698;SDS011;33708;49.466;11.176;2023-07-24T12:15:13;17.93;;;8.70;;
4698;SDS011;33708;49.466;11.176;2023-07-24T12:17:39;23.67;;;8.33;;
4698;SDS011;33708;49.466;11.176;2023-07-24T12:20:06;8.80;;;6.37;;
4698;SDS011;33708;49.466;11.176;2023-07-24T12:22:36;14.00;;;6.60;;
4698;SDS011;33708;49.466;11.176;2023-07-24T12:25:03;10.80;;;7.30;;
4698;SDS011;33708;49.466;11.176;2023-07-24T12:27:29;7.47;;;5.47;;
4698;SDS011;33708;49.466;11.176;2023-07-24T12:29:56;8.47;;;6.17;;
4698;SDS011;33708;49.466;11.176;2023-07-24T12:32:22;14.90;;;6.50;;
4698;SDS011;33708;49.466;11.176;2023-07-24T12:34:48;8.50;;;6.40;;
4698;SDS011;33708;49.466;11.176;2023-07-24T12:37:15;8.27;;;5.80;;
4698;SDS011;33708;49.466;11.176;2023-07-24T12:39:40;20.13;;;6.80;;
4698;SDS011;33708;49.466;11.176;2023-07-24T12:42:06;17.23;;;6.87;;
4698;SDS011;33708;49.466;11.176;2023-07-24T12:44:32;9.37;;;6.50;;
4698;SDS011;33708;49.466;11.176;2023-07-24T12:46:58;12.60;;;6.20;;
4698;SDS011;33708;49.466;11.176;2023-07-24T12:49:23;9.83;;;6.13;;
4698;SDS011;33708;49.466;11.176;2023-07-24T12:51:49;9.40;;;6.10;;
4698;SDS011;33708;49.466;11.176;2023-07-24T12:54:15;9.00;;;7.00;;
4698;SDS011;33708;49.466;11.176;2023-07-24T12:56:42;12.60;;;7.23;;
4698;SDS011;33708;49.466;11.176;2023-07-24T12:59:07;11.03;;;6.90;;
4698;SDS011;33708;49.466;11.176;2023-07-24T13:01:33;10.93;;;7.40;;
4698;SDS011;33708;49.466;11.176;2023-07-24T13:03:58;12.90;;;8.47;;
4698;SDS011;33708;49.466;11.176;2023-07-24T13:06:24;12.07;;;7.87;;
4698;SDS011;33708;49.466;11.176;2023-07-24T13:08:50;11.67;;;7.53;;
4698;SDS011;33708;49.466;11.176;2023-07-24T13:11:15;13.63;;;8.00;;
4698;SDS011;33708;49.466;11.176;2023-07-24T13:13:41;13.30;;;8.00;;
4698;SDS011;33708;49.466;11.176;2023-07-24T13:16:07;13.70;;;7.90;;
4698;SDS011;33708;49.466;11.176;2023-07-24T13:18:32;11.30;;;7.63;;
4698;SDS011;33708;49.466;11.176;2023-07-24T13:20:58;13.17;;;7.87;;
4698;SDS011;33708;49.466;11.176;2023-07-24T13:23:24;10.30;;;7.57;;
4698;SDS011;33708;49.466;11.176;2023-07-24T13:25:49;11.37;;;7.23;;
4698;SDS011;33708;49.466;11.176;2023-07-24T13:28:16;12.00;;;7.63;;
4698;SDS011;33708;49.466;11.176;2023-07-24T13:30:42;8.87;;;6.57;;
4698;SDS011;33708;49.466;11.176;2023-07-24T13:33:07;10.80;;;7.77;;
4698;SDS011;33708;49.466;11.176;2023-07-24T13:35:33;12.30;;;6.60;;
4698;SDS011;33708;49.466;11.176;2023-07-24T13:37:58;11.33;;;6.90;;
4698;SDS011;33708;49.466;11.176;2023-07-24T13:40:24;14.93;;;7.97;;
4698;SDS011;33708;49.466;11.176;2023-07-24T13:42:50;13.27;;;6.70;;
4698;SDS011;33708;49.466;11.176;2023-07-24T13:45:15;11.63;;;7.50;;
4698;SDS011;33708;49.466;11.176;2023-07-24T13:47:41;12.37;;;7.73;;
4698;SDS011;33708;49.466;11.176;2023-07-24T13:50:07;11.70;;;7.47;;
4698;SDS011;33708;49.466;11.176;2023-07-24T13:52:32;13.63;;;6.67;;
4698;SDS011;33708;49.466;11.176;2023-07-24T13:54:58;11.40;;;6.93;;
4698;SDS011;33708;49.466;11.176;2023-07-24T13:57:24;13.80;;;7.43;;
4698;SDS011;33708;49.466;11.176;2023-07-24T13:59:49;10.60;;;6.90;;
4698;SDS011;33708;49.466;11.176;2023-07-24T14:02:15;9.63;;;6.67;;
4698;SDS011;33708;49.466;11.176;2023-07-24T14:04:41;9.27;;;6.70;;
4698;SDS011;33708;49.466;11.176;2023-07-24T14:07:06;11.30;;;7.57;;
4698;SDS011;33708;49.466;11.176;2023-07-24T14:09:32;8.63;;;6.10;;
4698;SDS011;33708;49.466;11.176;2023-07-24T14:11:59;16.30;;;7.30;;
4698;SDS011;33708;49.466;11.176;2023-07-24T14:14:25;9.60;;;6.73;;
4698;SDS011;33708;49.466;11.176;2023-07-24T14:16:51;9.30;;;6.40;;
4698;SDS011;33708;49.466;11.176;2023-07-24T14:19:17;8.20;;;6.27;;
4698;SDS011;33708;49.466;11.176;2023-07-24T14:21:43;11.63;;;6.57;;
4698;SDS011;33708;49.466;11.176;2023-07-24T14:24:09;8.83;;;6.20;;
4698;SDS011;33708;49.466;11.176;2023-07-24T14:26:35;9.67;;;6.70;;
4698;SDS011;33708;49.466;11.176;2023-07-24T14:29:02;9.63;;;5.90;;
4698;SDS011;33708;49.466;11.176;2023-07-24T14:31:28;9.80;;;6.17;;